sensor_id;sensor_type;location;lat;lon;timestamp;temperature;humidity
2409;DHT22;8463;48.094;7.970;2023-01-10T00:02:04;5.30;66.20
2409;DHT22;8463;48.094;7.970;2023-01-10T00:04:30;5.20;66.00
2409;DHT22;8463;48.094;7.970;2023-01-10T00:06:55;5.20;66.20
2409;DHT22;8463;48.094;7.970;2023-01-10T00:09:21;5.20;65.90
2409;DHT22;8463;48.094;7.970;2023-01-10T00:11:48;5.30;66.10
2409;DHT22;8463;48.094;7.970;2023-01-10T00:17:52;5.30;66.70
2409;DHT22;8463;48.094;7.970;2023-01-10T00:20:17;5.30;66.60
2409;DHT22;8463;48.094;7.970;2023-01-10T00:22:43;5.20;62.40
2409;DHT22;8463;48.094;7.970;2023-01-10T00:25:13;5.30;63.30
2409;DHT22;8463;48.094;7.970;2023-01-10T00:27:39;5.30;64.50
2409;DHT22;8463;48.094;7.970;2023-01-10T00:30:05;5.30;65.00
2409;DHT22;8463;48.094;7.970;2023-01-10T00:32:43;5.30;65.00
2409;DHT22;8463;48.094;7.970;2023-01-10T00:35:09;5.30;65.60
2409;DHT22;8463;48.094;7.970;2023-01-10T00:37:35;5.30;66.00
2409;DHT22;8463;48.094;7.970;2023-01-10T00:40:01;5.30;66.40
2409;DHT22;8463;48.094;7.970;2023-01-10T00:42:27;5.30;67.20
2409;DHT22;8463;48.094;7.970;2023-01-10T00:45:11;5.20;67.60
2409;DHT22;8463;48.094;7.970;2023-01-10T00:47:36;5.20;67.90
2409;DHT22;8463;48.094;7.970;2023-01-10T00:50:03;5.20;68.30
2409;DHT22;8463;48.094;7.970;2023-01-10T00:52:34;5.20;68.50
2409;DHT22;8463;48.094;7.970;2023-01-10T00:55:00;5.30;68.70
2409;DHT22;8463;48.094;7.970;2023-01-10T00:57:25;5.20;68.70
2409;DHT22;8463;48.094;7.970;2023-01-10T00:59:51;5.20;68.60
2409;DHT22;8463;48.094;7.970;2023-01-10T01:02:17;5.20;68.60
2409;DHT22;8463;48.094;7.970;2023-01-10T01:04:42;5.20;69.10
2409;DHT22;8463;48.094;7.970;2023-01-10T01:07:08;5.20;69.30
2409;DHT22;8463;48.094;7.970;2023-01-10T01:09:36;5.20;69.60
2409;DHT22;8463;48.094;7.970;2023-01-10T01:12:22;5.20;69.60
2409;DHT22;8463;48.094;7.970;2023-01-10T01:14:50;5.10;69.20
2409;DHT22;8463;48.094;7.970;2023-01-10T01:17:15;5.10;69.40
2409;DHT22;8463;48.094;7.970;2023-01-10T01:19:42;5.10;69.50
2409;DHT22;8463;48.094;7.970;2023-01-10T01:22:07;5.10;69.80
2409;DHT22;8463;48.094;7.970;2023-01-10T01:24:33;5.10;69.60
2409;DHT22;8463;48.094;7.970;2023-01-10T01:26:58;5.10;70.70
2409;DHT22;8463;48.094;7.970;2023-01-10T01:29:24;5.00;70.30
2409;DHT22;8463;48.094;7.970;2023-01-10T01:31:52;5.00;70.50
2409;DHT22;8463;48.094;7.970;2023-01-10T01:34:17;5.00;68.80
2409;DHT22;8463;48.094;7.970;2023-01-10T01:36:43;5.00;65.80
2409;DHT22;8463;48.094;7.970;2023-01-10T01:39:08;5.10;64.90
2409;DHT22;8463;48.094;7.970;2023-01-10T01:41:34;5.10;65.60
2409;DHT22;8463;48.094;7.970;2023-01-10T01:44:18;5.10;65.40
2409;DHT22;8463;48.094;7.970;2023-01-10T01:46:50;5.10;64.90
2409;DHT22;8463;48.094;7.970;2023-01-10T01:49:20;5.10;65.80
2409;DHT22;8463;48.094;7.970;2023-01-10T01:51:52;5.20;66.60
2409;DHT22;8463;48.094;7.970;2023-01-10T01:54:21;5.20;67.10
2409;DHT22;8463;48.094;7.970;2023-01-10T01:57:00;5.30;67.30
2409;DHT22;8463;48.094;7.970;2023-01-10T01:59:34;5.30;68.00
2409;DHT22;8463;48.094;7.970;2023-01-10T02:02:05;5.20;68.40
2409;DHT22;8463;48.094;7.970;2023-01-10T02:07:17;5.20;69.00
2409;DHT22;8463;48.094;7.970;2023-01-10T02:09:55;5.20;68.90
2409;DHT22;8463;48.094;7.970;2023-01-10T02:12:23;5.20;69.20
2409;DHT22;8463;48.094;7.970;2023-01-10T02:14:50;5.20;68.70
2409;DHT22;8463;48.094;7.970;2023-01-10T02:17:16;5.20;68.60
2409;DHT22;8463;48.094;7.970;2023-01-10T02:38:27;5.20;57.00
2409;DHT22;8463;48.094;7.970;2023-01-10T02:41:12;5.20;57.00
2409;DHT22;8463;48.094;7.970;2023-01-10T02:43:50;5.30;58.20
2409;DHT22;8463;48.094;7.970;2023-01-10T02:46:21;5.30;58.10
2409;DHT22;8463;48.094;7.970;2023-01-10T02:48:53;5.20;56.80
2409;DHT22;8463;48.094;7.970;2023-01-10T02:51:22;5.20;55.90
2409;DHT22;8463;48.094;7.970;2023-01-10T02:54:08;5.30;55.20
2409;DHT22;8463;48.094;7.970;2023-01-10T03:07:38;5.20;57.00
2409;DHT22;8463;48.094;7.970;2023-01-10T03:10:14;5.20;57.00
2409;DHT22;8463;48.094;7.970;2023-01-10T03:12:46;5.20;56.20
2409;DHT22;8463;48.094;7.970;2023-01-10T03:15:15;5.20;57.40
2409;DHT22;8463;48.094;7.970;2023-01-10T03:17:46;5.20;59.70
2409;DHT22;8463;48.094;7.970;2023-01-10T03:20:16;5.20;60.30
2409;DHT22;8463;48.094;7.970;2023-01-10T03:22:45;5.10;61.30
2409;DHT22;8463;48.094;7.970;2023-01-10T03:25:15;5.10;61.00
2409;DHT22;8463;48.094;7.970;2023-01-10T03:28:01;5.10;60.50
2409;DHT22;8463;48.094;7.970;2023-01-10T03:30:42;5.10;60.70
2409;DHT22;8463;48.094;7.970;2023-01-10T03:33:10;5.10;61.80
2409;DHT22;8463;48.094;7.970;2023-01-10T03:36:17;5.00;61.50
2409;DHT22;8463;48.094;7.970;2023-01-10T03:38:49;5.00;60.60
2409;DHT22;8463;48.094;7.970;2023-01-10T03:41:39;5.00;60.40
2409;DHT22;8463;48.094;7.970;2023-01-10T03:44:33;5.00;60.40
2409;DHT22;8463;48.094;7.970;2023-01-10T03:47:29;5.00;60.50
2409;DHT22;8463;48.094;7.970;2023-01-10T03:50:03;5.10;61.80
2409;DHT22;8463;48.094;7.970;2023-01-10T03:52:32;5.10;62.10
2409;DHT22;8463;48.094;7.970;2023-01-10T03:54:58;5.00;61.90
2409;DHT22;8463;48.094;7.970;2023-01-10T03:57:26;5.00;62.00
2409;DHT22;8463;48.094;7.970;2023-01-10T03:59:54;5.00;62.30
2409;DHT22;8463;48.094;7.970;2023-01-10T04:02:26;5.00;61.90
2409;DHT22;8463;48.094;7.970;2023-01-10T04:04:54;5.00;61.60
2409;DHT22;8463;48.094;7.970;2023-01-10T04:07:19;5.00;59.00
2409;DHT22;8463;48.094;7.970;2023-01-10T04:09:45;5.00;58.30
2409;DHT22;8463;48.094;7.970;2023-01-10T04:12:11;5.00;58.10
2409;DHT22;8463;48.094;7.970;2023-01-10T04:14:36;5.00;56.90
2409;DHT22;8463;48.094;7.970;2023-01-10T04:17:03;5.00;58.60
2409;DHT22;8463;48.094;7.970;2023-01-10T04:19:29;5.00;58.20
2409;DHT22;8463;48.094;7.970;2023-01-10T04:21:54;4.90;56.80
2409;DHT22;8463;48.094;7.970;2023-01-10T04:24:20;4.90;56.50
2409;DHT22;8463;48.094;7.970;2023-01-10T04:26:46;4.90;56.80
2409;DHT22;8463;48.094;7.970;2023-01-10T04:29:12;4.90;54.80
2409;DHT22;8463;48.094;7.970;2023-01-10T04:31:37;4.90;56.10
2409;DHT22;8463;48.094;7.970;2023-01-10T04:34:05;4.90;57.60
2409;DHT22;8463;48.094;7.970;2023-01-10T04:36:31;4.90;56.80
2409;DHT22;8463;48.094;7.970;2023-01-10T04:38:57;5.00;57.80
2409;DHT22;8463;48.094;7.970;2023-01-10T04:41:22;4.90;57.90
2409;DHT22;8463;48.094;7.970;2023-01-10T04:43:50;4.90;59.40
2409;DHT22;8463;48.094;7.970;2023-01-10T04:46:16;4.90;59.00
2409;DHT22;8463;48.094;7.970;2023-01-10T04:48:41;4.90;59.80
2409;DHT22;8463;48.094;7.970;2023-01-10T04:51:07;5.00;60.70
2409;DHT22;8463;48.094;7.970;2023-01-10T04:53:32;5.00;60.90
2409;DHT22;8463;48.094;7.970;2023-01-10T04:56:06;5.00;61.20
2409;DHT22;8463;48.094;7.970;2023-01-10T04:58:36;5.00;60.90
2409;DHT22;8463;48.094;7.970;2023-01-10T05:01:10;4.90;61.30
2409;DHT22;8463;48.094;7.970;2023-01-10T05:03:36;4.90;61.70
2409;DHT22;8463;48.094;7.970;2023-01-10T05:06:02;4.80;62.10
2409;DHT22;8463;48.094;7.970;2023-01-10T05:08:28;4.80;62.50
2409;DHT22;8463;48.094;7.970;2023-01-10T05:10:53;4.80;63.50
2409;DHT22;8463;48.094;7.970;2023-01-10T05:13:19;4.70;63.70
2409;DHT22;8463;48.094;7.970;2023-01-10T05:15:44;4.70;64.50
2409;DHT22;8463;48.094;7.970;2023-01-10T05:18:10;4.70;64.50
2409;DHT22;8463;48.094;7.970;2023-01-10T05:20:35;4.70;64.60
2409;DHT22;8463;48.094;7.970;2023-01-10T05:23:01;4.60;65.30
2409;DHT22;8463;48.094;7.970;2023-01-10T05:25:29;4.60;65.60
2409;DHT22;8463;48.094;7.970;2023-01-10T05:27:55;4.60;65.90
2409;DHT22;8463;48.094;7.970;2023-01-10T05:30:20;4.50;66.00
2409;DHT22;8463;48.094;7.970;2023-01-10T05:32:46;4.50;65.80
2409;DHT22;8463;48.094;7.970;2023-01-10T05:35:11;4.40;64.80
2409;DHT22;8463;48.094;7.970;2023-01-10T05:37:37;4.40;65.80
2409;DHT22;8463;48.094;7.970;2023-01-10T05:40:03;4.40;64.30
2409;DHT22;8463;48.094;7.970;2023-01-10T05:42:29;4.40;62.80
2409;DHT22;8463;48.094;7.970;2023-01-10T05:44:55;4.40;61.80
2409;DHT22;8463;48.094;7.970;2023-01-10T05:47:20;4.40;60.60
2409;DHT22;8463;48.094;7.970;2023-01-10T05:49:46;4.40;61.20
2409;DHT22;8463;48.094;7.970;2023-01-10T05:52:11;4.40;60.70
2409;DHT22;8463;48.094;7.970;2023-01-10T05:54:37;4.40;61.10
2409;DHT22;8463;48.094;7.970;2023-01-10T05:57:05;4.40;60.90
2409;DHT22;8463;48.094;7.970;2023-01-10T05:59:31;4.40;61.50
2409;DHT22;8463;48.094;7.970;2023-01-10T06:01:56;4.40;62.30
2409;DHT22;8463;48.094;7.970;2023-01-10T06:04:24;4.40;62.80
2409;DHT22;8463;48.094;7.970;2023-01-10T06:06:50;4.50;64.40
2409;DHT22;8463;48.094;7.970;2023-01-10T06:09:16;4.50;63.10
2409;DHT22;8463;48.094;7.970;2023-01-10T06:11:41;4.50;64.40
2409;DHT22;8463;48.094;7.970;2023-01-10T06:14:07;4.60;64.50
2409;DHT22;8463;48.094;7.970;2023-01-10T06:16:33;4.60;64.50
2409;DHT22;8463;48.094;7.970;2023-01-10T06:18:58;4.70;64.50
2409;DHT22;8463;48.094;7.970;2023-01-10T06:21:24;4.70;64.50
2409;DHT22;8463;48.094;7.970;2023-01-10T06:23:49;4.60;62.50
2409;DHT22;8463;48.094;7.970;2023-01-10T06:26:15;4.50;63.00
2409;DHT22;8463;48.094;7.970;2023-01-10T06:28:41;4.50;63.30
2409;DHT22;8463;48.094;7.970;2023-01-10T06:31:07;4.50;64.80
2409;DHT22;8463;48.094;7.970;2023-01-10T06:33:33;4.30;63.80
2409;DHT22;8463;48.094;7.970;2023-01-10T06:35:58;4.30;64.20
2409;DHT22;8463;48.094;7.970;2023-01-10T06:38:24;4.30;64.20
2409;DHT22;8463;48.094;7.970;2023-01-10T06:40:50;4.10;65.30
2409;DHT22;8463;48.094;7.970;2023-01-10T06:43:15;4.30;67.90
2409;DHT22;8463;48.094;7.970;2023-01-10T06:45:41;5.50;75.10
2409;DHT22;8463;48.094;7.970;2023-01-10T06:48:06;5.50;72.80
2409;DHT22;8463;48.094;7.970;2023-01-10T06:50:32;5.20;69.10
2409;DHT22;8463;48.094;7.970;2023-01-10T06:52:59;5.10;66.80
2409;DHT22;8463;48.094;7.970;2023-01-10T06:55:26;4.90;64.70
2409;DHT22;8463;48.094;7.970;2023-01-10T06:58:00;4.70;64.40
2409;DHT22;8463;48.094;7.970;2023-01-10T07:00:27;4.70;64.50
2409;DHT22;8463;48.094;7.970;2023-01-10T07:02:57;4.50;63.50
2409;DHT22;8463;48.094;7.970;2023-01-10T07:05:23;4.40;64.20
2409;DHT22;8463;48.094;7.970;2023-01-10T07:07:48;4.30;64.60
2409;DHT22;8463;48.094;7.970;2023-01-10T07:10:14;4.10;67.30
2409;DHT22;8463;48.094;7.970;2023-01-10T07:12:40;4.10;67.70
2409;DHT22;8463;48.094;7.970;2023-01-10T07:15:06;4.10;69.10
2409;DHT22;8463;48.094;7.970;2023-01-10T07:17:32;4.20;69.00
2409;DHT22;8463;48.094;7.970;2023-01-10T07:19:57;4.30;69.10
2409;DHT22;8463;48.094;7.970;2023-01-10T07:22:23;4.30;69.10
2409;DHT22;8463;48.094;7.970;2023-01-10T07:24:48;4.40;69.10
2409;DHT22;8463;48.094;7.970;2023-01-10T07:27:14;4.50;69.00
2409;DHT22;8463;48.094;7.970;2023-01-10T07:29:40;4.50;69.00
2409;DHT22;8463;48.094;7.970;2023-01-10T07:32:05;4.60;69.00
2409;DHT22;8463;48.094;7.970;2023-01-10T07:34:31;4.60;68.90
2409;DHT22;8463;48.094;7.970;2023-01-10T07:36:57;4.60;68.90
2409;DHT22;8463;48.094;7.970;2023-01-10T07:39:22;4.70;68.90
2409;DHT22;8463;48.094;7.970;2023-01-10T07:41:48;4.80;68.80
2409;DHT22;8463;48.094;7.970;2023-01-10T07:44:15;4.80;68.60
2409;DHT22;8463;48.094;7.970;2023-01-10T07:46:41;4.80;68.30
2409;DHT22;8463;48.094;7.970;2023-01-10T07:49:07;4.80;68.30
2409;DHT22;8463;48.094;7.970;2023-01-10T07:51:33;4.80;68.20
2409;DHT22;8463;48.094;7.970;2023-01-10T07:53:58;4.80;67.70
2409;DHT22;8463;48.094;7.970;2023-01-10T07:56:24;4.80;67.40
2409;DHT22;8463;48.094;7.970;2023-01-10T07:58:50;4.90;67.30
2409;DHT22;8463;48.094;7.970;2023-01-10T08:01:16;4.90;66.70
2409;DHT22;8463;48.094;7.970;2023-01-10T08:03:41;4.90;66.60
2409;DHT22;8463;48.094;7.970;2023-01-10T08:06:08;4.90;66.90
2409;DHT22;8463;48.094;7.970;2023-01-10T08:08:37;4.80;66.80
2409;DHT22;8463;48.094;7.970;2023-01-10T08:11:03;4.80;67.20
2409;DHT22;8463;48.094;7.970;2023-01-10T08:13:30;4.80;67.30
2409;DHT22;8463;48.094;7.970;2023-01-10T08:15:56;4.80;66.50
2409;DHT22;8463;48.094;7.970;2023-01-10T08:18:23;4.70;66.60
2409;DHT22;8463;48.094;7.970;2023-01-10T08:20:52;4.80;67.00
2409;DHT22;8463;48.094;7.970;2023-01-10T08:23:19;4.80;67.10
2409;DHT22;8463;48.094;7.970;2023-01-10T08:25:45;4.80;67.40
2409;DHT22;8463;48.094;7.970;2023-01-10T08:28:11;4.90;67.00
2409;DHT22;8463;48.094;7.970;2023-01-10T08:30:37;4.90;67.10
2409;DHT22;8463;48.094;7.970;2023-01-10T08:33:04;5.00;67.20
2409;DHT22;8463;48.094;7.970;2023-01-10T08:35:35;5.00;67.00
2409;DHT22;8463;48.094;7.970;2023-01-10T08:38:00;5.00;65.00
2409;DHT22;8463;48.094;7.970;2023-01-10T08:40:26;5.00;64.80
2409;DHT22;8463;48.094;7.970;2023-01-10T08:43:02;4.90;64.70
2409;DHT22;8463;48.094;7.970;2023-01-10T08:45:28;4.90;64.70
2409;DHT22;8463;48.094;7.970;2023-01-10T08:47:54;4.90;64.70
2409;DHT22;8463;48.094;7.970;2023-01-10T08:50:20;5.00;65.00
2409;DHT22;8463;48.094;7.970;2023-01-10T08:52:45;5.10;65.40
2409;DHT22;8463;48.094;7.970;2023-01-10T08:55:11;5.10;65.40
2409;DHT22;8463;48.094;7.970;2023-01-10T08:57:39;5.20;65.70
2409;DHT22;8463;48.094;7.970;2023-01-10T09:00:05;5.30;66.20
2409;DHT22;8463;48.094;7.970;2023-01-10T09:02:31;5.40;66.40
2409;DHT22;8463;48.094;7.970;2023-01-10T09:04:56;5.40;66.40
2409;DHT22;8463;48.094;7.970;2023-01-10T09:07:24;5.40;65.80
2409;DHT22;8463;48.094;7.970;2023-01-10T09:09:49;5.40;63.90
2409;DHT22;8463;48.094;7.970;2023-01-10T09:12:15;5.40;63.10
2409;DHT22;8463;48.094;7.970;2023-01-10T09:14:59;5.30;59.30
2409;DHT22;8463;48.094;7.970;2023-01-10T09:17:25;5.20;56.60
2409;DHT22;8463;48.094;7.970;2023-01-10T09:19:51;5.30;57.20
2409;DHT22;8463;48.094;7.970;2023-01-10T09:22:17;5.20;55.20
2409;DHT22;8463;48.094;7.970;2023-01-10T09:24:45;5.30;56.80
2409;DHT22;8463;48.094;7.970;2023-01-10T09:27:10;5.30;51.50
2409;DHT22;8463;48.094;7.970;2023-01-10T09:29:36;5.40;48.60
2409;DHT22;8463;48.094;7.970;2023-01-10T09:32:02;5.50;52.00
2409;DHT22;8463;48.094;7.970;2023-01-10T09:34:29;5.50;51.10
2409;DHT22;8463;48.094;7.970;2023-01-10T09:36:55;5.60;48.80
2409;DHT22;8463;48.094;7.970;2023-01-10T09:39:21;5.60;48.80
2409;DHT22;8463;48.094;7.970;2023-01-10T09:47:30;5.70;46.30
2409;DHT22;8463;48.094;7.970;2023-01-10T09:50:24;5.80;48.10
2409;DHT22;8463;48.094;7.970;2023-01-10T09:53:04;5.90;47.40
2409;DHT22;8463;48.094;7.970;2023-01-10T09:55:35;5.90;45.90
2409;DHT22;8463;48.094;7.970;2023-01-10T09:58:15;5.90;45.40
2409;DHT22;8463;48.094;7.970;2023-01-10T10:00:43;5.90;45.40
2409;DHT22;8463;48.094;7.970;2023-01-10T10:05:45;6.10;45.10
2409;DHT22;8463;48.094;7.970;2023-01-10T10:08:15;6.30;40.70
2409;DHT22;8463;48.094;7.970;2023-01-10T10:22:19;7.00;39.80
2409;DHT22;8463;48.094;7.970;2023-01-10T10:30:32;6.50;40.10
2409;DHT22;8463;48.094;7.970;2023-01-10T10:33:32;6.50;40.70
2409;DHT22;8463;48.094;7.970;2023-01-10T10:36:14;6.40;40.50
2409;DHT22;8463;48.094;7.970;2023-01-10T10:38:46;6.30;41.10
2409;DHT22;8463;48.094;7.970;2023-01-10T10:43:58;6.30;41.30
2409;DHT22;8463;48.094;7.970;2023-01-10T10:46:32;6.40;42.40
2409;DHT22;8463;48.094;7.970;2023-01-10T10:49:17;6.40;42.90
2409;DHT22;8463;48.094;7.970;2023-01-10T10:51:51;6.30;40.50
2409;DHT22;8463;48.094;7.970;2023-01-10T10:54:17;6.20;41.70
2409;DHT22;8463;48.094;7.970;2023-01-10T10:56:43;6.20;41.30
2409;DHT22;8463;48.094;7.970;2023-01-10T10:59:16;6.20;42.30
2409;DHT22;8463;48.094;7.970;2023-01-10T11:01:45;6.10;41.40
2409;DHT22;8463;48.094;7.970;2023-01-10T11:04:16;6.20;43.90
2409;DHT22;8463;48.094;7.970;2023-01-10T11:06:44;6.10;43.00
2409;DHT22;8463;48.094;7.970;2023-01-10T11:09:14;6.20;43.60
2409;DHT22;8463;48.094;7.970;2023-01-10T11:11:45;6.20;44.50
2409;DHT22;8463;48.094;7.970;2023-01-10T11:14:12;6.20;41.00
2409;DHT22;8463;48.094;7.970;2023-01-10T11:16:41;6.30;43.00
2409;DHT22;8463;48.094;7.970;2023-01-10T11:19:25;6.20;42.80
2409;DHT22;8463;48.094;7.970;2023-01-10T11:22:01;6.30;40.90
2409;DHT22;8463;48.094;7.970;2023-01-10T11:24:41;6.30;41.50
2409;DHT22;8463;48.094;7.970;2023-01-10T11:27:45;6.30;40.50
2409;DHT22;8463;48.094;7.970;2023-01-10T11:30:22;6.30;41.20
2409;DHT22;8463;48.094;7.970;2023-01-10T11:32:54;6.40;39.40
2409;DHT22;8463;48.094;7.970;2023-01-10T11:35:25;6.50;39.40
2409;DHT22;8463;48.094;7.970;2023-01-10T11:38:19;6.50;38.80
2409;DHT22;8463;48.094;7.970;2023-01-10T11:43:46;6.50;38.50
2409;DHT22;8463;48.094;7.970;2023-01-10T11:46:19;6.50;37.40
2409;DHT22;8463;48.094;7.970;2023-01-10T11:51:28;6.40;37.40
2409;DHT22;8463;48.094;7.970;2023-01-10T11:53:58;6.40;38.10
2409;DHT22;8463;48.094;7.970;2023-01-10T11:56:28;6.40;37.40
2409;DHT22;8463;48.094;7.970;2023-01-10T11:58:57;6.30;37.60
2409;DHT22;8463;48.094;7.970;2023-01-10T12:01:39;6.40;37.60
2409;DHT22;8463;48.094;7.970;2023-01-10T12:04:05;6.30;38.40
2409;DHT22;8463;48.094;7.970;2023-01-10T12:06:32;6.30;39.10
2409;DHT22;8463;48.094;7.970;2023-01-10T12:08:58;6.40;37.50
2409;DHT22;8463;48.094;7.970;2023-01-10T12:11:29;6.40;40.20
2409;DHT22;8463;48.094;7.970;2023-01-10T12:13:59;6.50;35.90
2409;DHT22;8463;48.094;7.970;2023-01-10T12:16:31;6.60;37.40
2409;DHT22;8463;48.094;7.970;2023-01-10T12:18:59;6.60;37.20
2409;DHT22;8463;48.094;7.970;2023-01-10T12:24:04;6.70;37.40
2409;DHT22;8463;48.094;7.970;2023-01-10T12:26:32;6.60;35.90
2409;DHT22;8463;48.094;7.970;2023-01-10T12:29:04;6.60;37.50
2409;DHT22;8463;48.094;7.970;2023-01-10T12:31:33;6.70;35.30
2409;DHT22;8463;48.094;7.970;2023-01-10T12:34:29;6.70;35.90
2409;DHT22;8463;48.094;7.970;2023-01-10T12:36:59;6.60;35.30
2409;DHT22;8463;48.094;7.970;2023-01-10T12:39:32;6.60;36.20
2409;DHT22;8463;48.094;7.970;2023-01-10T12:47:42;6.50;33.30
2409;DHT22;8463;48.094;7.970;2023-01-10T12:50:18;6.70;33.00
2409;DHT22;8463;48.094;7.970;2023-01-10T12:52:53;6.70;34.00
2409;DHT22;8463;48.094;7.970;2023-01-10T12:55:23;6.60;33.70
2409;DHT22;8463;48.094;7.970;2023-01-10T12:57:52;6.60;35.60
2409;DHT22;8463;48.094;7.970;2023-01-10T13:00:31;6.60;34.40
2409;DHT22;8463;48.094;7.970;2023-01-10T13:02:59;6.60;34.50
2409;DHT22;8463;48.094;7.970;2023-01-10T13:05:27;6.60;36.20
2409;DHT22;8463;48.094;7.970;2023-01-10T13:08:04;6.60;36.30
2409;DHT22;8463;48.094;7.970;2023-01-10T13:10:32;6.60;37.00
2409;DHT22;8463;48.094;7.970;2023-01-10T13:15:35;6.60;35.30
2409;DHT22;8463;48.094;7.970;2023-01-10T13:18:25;6.70;34.90
2409;DHT22;8463;48.094;7.970;2023-01-10T13:21:11;6.70;35.10
2409;DHT22;8463;48.094;7.970;2023-01-10T13:23:50;6.80;36.20
2409;DHT22;8463;48.094;7.970;2023-01-10T13:26:17;6.90;32.80
2409;DHT22;8463;48.094;7.970;2023-01-10T13:28:56;6.90;34.50
2409;DHT22;8463;48.094;7.970;2023-01-10T13:31:25;6.90;32.50
2409;DHT22;8463;48.094;7.970;2023-01-10T13:34:04;7.00;32.00
2409;DHT22;8463;48.094;7.970;2023-01-10T13:36:48;7.00;32.90
2409;DHT22;8463;48.094;7.970;2023-01-10T13:39:31;7.00;30.90
2409;DHT22;8463;48.094;7.970;2023-01-10T13:45:16;7.00;31.50
2409;DHT22;8463;48.094;7.970;2023-01-10T13:55:54;7.00;29.30
2409;DHT22;8463;48.094;7.970;2023-01-10T14:01:29;7.10;28.70
2409;DHT22;8463;48.094;7.970;2023-01-10T14:04:26;7.10;28.80
2409;DHT22;8463;48.094;7.970;2023-01-10T14:07:03;7.10;28.70
2409;DHT22;8463;48.094;7.970;2023-01-10T14:09:35;7.20;27.50
2409;DHT22;8463;48.094;7.970;2023-01-10T14:12:07;7.20;27.70
2409;DHT22;8463;48.094;7.970;2023-01-10T14:14:41;7.20;28.20
2409;DHT22;8463;48.094;7.970;2023-01-10T14:17:28;7.20;26.30
2409;DHT22;8463;48.094;7.970;2023-01-10T14:20:05;7.30;28.00
2409;DHT22;8463;48.094;7.970;2023-01-10T14:22:39;7.30;25.80
2409;DHT22;8463;48.094;7.970;2023-01-10T14:25:18;7.30;24.50
2409;DHT22;8463;48.094;7.970;2023-01-10T14:27:47;7.30;24.50
2409;DHT22;8463;48.094;7.970;2023-01-10T14:30:21;7.20;26.00
2409;DHT22;8463;48.094;7.970;2023-01-10T14:32:52;7.20;26.80
2409;DHT22;8463;48.094;7.970;2023-01-10T14:35:26;7.10;26.90
2409;DHT22;8463;48.094;7.970;2023-01-10T14:37:57;7.10;28.90
2409;DHT22;8463;48.094;7.970;2023-01-10T14:40:40;7.00;28.00
2409;DHT22;8463;48.094;7.970;2023-01-10T14:43:17;7.10;27.10
2409;DHT22;8463;48.094;7.970;2023-01-10T14:46:03;7.10;27.50
2409;DHT22;8463;48.094;7.970;2023-01-10T14:48:51;7.00;27.50
2409;DHT22;8463;48.094;7.970;2023-01-10T14:51:29;8.10;28.40
2409;DHT22;8463;48.094;7.970;2023-01-10T14:54:09;7.00;31.10
2409;DHT22;8463;48.094;7.970;2023-01-10T14:56:36;6.90;31.80
2409;DHT22;8463;48.094;7.970;2023-01-10T14:59:24;6.90;31.90
2409;DHT22;8463;48.094;7.970;2023-01-10T15:01:55;6.80;33.20
2409;DHT22;8463;48.094;7.970;2023-01-10T15:04:25;6.80;29.70
2409;DHT22;8463;48.094;7.970;2023-01-10T15:07:00;6.90;28.40
2409;DHT22;8463;48.094;7.970;2023-01-10T15:09:28;6.90;27.60
2409;DHT22;8463;48.094;7.970;2023-01-10T15:11:55;6.90;26.40
2409;DHT22;8463;48.094;7.970;2023-01-10T15:14:23;6.90;24.30
2409;DHT22;8463;48.094;7.970;2023-01-10T15:16:53;6.90;26.40
2409;DHT22;8463;48.094;7.970;2023-01-10T15:19:21;6.90;26.60
2409;DHT22;8463;48.094;7.970;2023-01-10T15:21:47;6.80;29.60
2409;DHT22;8463;48.094;7.970;2023-01-10T15:24:32;8.00;26.80
2409;DHT22;8463;48.094;7.970;2023-01-10T15:27:01;6.80;26.60
2409;DHT22;8463;48.094;7.970;2023-01-10T15:29:27;6.80;33.20
2409;DHT22;8463;48.094;7.970;2023-01-10T15:31:56;6.50;36.70
2409;DHT22;8463;48.094;7.970;2023-01-10T15:34:31;6.30;36.20
2409;DHT22;8463;48.094;7.970;2023-01-10T15:36:58;6.20;39.60
2409;DHT22;8463;48.094;7.970;2023-01-10T15:39:28;6.10;37.30
2409;DHT22;8463;48.094;7.970;2023-01-10T15:41:58;6.10;40.30
2409;DHT22;8463;48.094;7.970;2023-01-10T15:44:38;6.00;40.70
2409;DHT22;8463;48.094;7.970;2023-01-10T15:47:05;6.00;41.90
2409;DHT22;8463;48.094;7.970;2023-01-10T15:49:54;5.90;43.50
2409;DHT22;8463;48.094;7.970;2023-01-10T15:52:22;5.90;43.70
2409;DHT22;8463;48.094;7.970;2023-01-10T15:54:51;5.90;44.00
2409;DHT22;8463;48.094;7.970;2023-01-10T15:57:24;5.80;42.90
2409;DHT22;8463;48.094;7.970;2023-01-10T15:59:50;5.70;44.70
2409;DHT22;8463;48.094;7.970;2023-01-10T16:02:30;5.70;43.90
2409;DHT22;8463;48.094;7.970;2023-01-10T16:05:15;5.70;44.30
2409;DHT22;8463;48.094;7.970;2023-01-10T16:07:50;5.70;44.90
2409;DHT22;8463;48.094;7.970;2023-01-10T16:10:23;5.70;42.10
2409;DHT22;8463;48.094;7.970;2023-01-10T16:13:09;5.70;42.90
2409;DHT22;8463;48.094;7.970;2023-01-10T16:15:58;5.70;43.00
2409;DHT22;8463;48.094;7.970;2023-01-10T16:18:26;5.60;44.40
2409;DHT22;8463;48.094;7.970;2023-01-10T16:20:57;5.70;45.00
2409;DHT22;8463;48.094;7.970;2023-01-10T16:23:30;5.70;44.90
2409;DHT22;8463;48.094;7.970;2023-01-10T16:26:00;5.70;43.70
2409;DHT22;8463;48.094;7.970;2023-01-10T16:28:27;5.70;43.70
2409;DHT22;8463;48.094;7.970;2023-01-10T16:30:55;5.80;42.30
2409;DHT22;8463;48.094;7.970;2023-01-10T16:33:22;5.80;42.40
2409;DHT22;8463;48.094;7.970;2023-01-10T16:35:51;5.80;43.00
2409;DHT22;8463;48.094;7.970;2023-01-10T16:38:18;5.90;42.90
2409;DHT22;8463;48.094;7.970;2023-01-10T16:40:50;5.90;44.60
2409;DHT22;8463;48.094;7.970;2023-01-10T16:43:17;5.90;43.50
2409;DHT22;8463;48.094;7.970;2023-01-10T16:45:45;5.90;42.30
2409;DHT22;8463;48.094;7.970;2023-01-10T16:48:11;5.80;40.60
2409;DHT22;8463;48.094;7.970;2023-01-10T16:50:39;5.80;41.40
2409;DHT22;8463;48.094;7.970;2023-01-10T16:53:05;5.80;42.00
2409;DHT22;8463;48.094;7.970;2023-01-10T16:55:50;5.80;42.30
2409;DHT22;8463;48.094;7.970;2023-01-10T16:58:16;5.80;41.80
2409;DHT22;8463;48.094;7.970;2023-01-10T17:00:46;5.80;41.70
2409;DHT22;8463;48.094;7.970;2023-01-10T17:03:19;5.90;43.00
2409;DHT22;8463;48.094;7.970;2023-01-10T17:05:45;5.90;45.20
2409;DHT22;8463;48.094;7.970;2023-01-10T17:08:17;5.90;45.20
2409;DHT22;8463;48.094;7.970;2023-01-10T17:10:44;5.90;45.10
2409;DHT22;8463;48.094;7.970;2023-01-10T17:13:11;5.90;45.40
2409;DHT22;8463;48.094;7.970;2023-01-10T17:15:38;5.90;45.70
2409;DHT22;8463;48.094;7.970;2023-01-10T17:18:03;5.80;47.60
2409;DHT22;8463;48.094;7.970;2023-01-10T17:20:29;5.80;48.90
2409;DHT22;8463;48.094;7.970;2023-01-10T17:22:56;5.90;47.70
2409;DHT22;8463;48.094;7.970;2023-01-10T17:25:22;5.80;47.20
2409;DHT22;8463;48.094;7.970;2023-01-10T17:27:48;5.80;47.00
2409;DHT22;8463;48.094;7.970;2023-01-10T17:30:14;5.80;47.40
2409;DHT22;8463;48.094;7.970;2023-01-10T17:32:40;5.80;47.70
2409;DHT22;8463;48.094;7.970;2023-01-10T17:35:06;5.70;38.70
2409;DHT22;8463;48.094;7.970;2023-01-10T17:37:33;5.80;38.60
2409;DHT22;8463;48.094;7.970;2023-01-10T17:39:58;6.00;39.60
2409;DHT22;8463;48.094;7.970;2023-01-10T17:42:24;5.90;40.20
2409;DHT22;8463;48.094;7.970;2023-01-10T17:44:50;5.90;41.10
2409;DHT22;8463;48.094;7.970;2023-01-10T17:47:16;5.90;40.10
2409;DHT22;8463;48.094;7.970;2023-01-10T17:49:43;5.90;26.70
2409;DHT22;8463;48.094;7.970;2023-01-10T17:52:09;6.20;20.00
2409;DHT22;8463;48.094;7.970;2023-01-10T17:54:35;6.50;16.50
2409;DHT22;8463;48.094;7.970;2023-01-10T17:57:04;6.60;15.90
2409;DHT22;8463;48.094;7.970;2023-01-10T17:59:32;6.70;16.60
2409;DHT22;8463;48.094;7.970;2023-01-10T18:01:57;6.60;16.60
2409;DHT22;8463;48.094;7.970;2023-01-10T18:04:23;6.70;12.60
2409;DHT22;8463;48.094;7.970;2023-01-10T18:06:49;6.70;13.00
2409;DHT22;8463;48.094;7.970;2023-01-10T18:09:17;6.70;11.40
2409;DHT22;8463;48.094;7.970;2023-01-10T18:11:42;6.80;11.60